Time;durP1;ratioP1;P1;durP2;ratioP2;P2;SDS_P1;SDS_P2;PMS_P1;PMS_P2;Temp;Humidity;BMP_temperature;BMP_pressure;BME280_temperature;BME280_humidity;BME280_pressure;Samples;Min_cycle;Max_cycle;Signal;HPM_P1;HPM_P2
2022/10/29 00:01:47;;;;;;;;;;;13.40;60.10;;;;;;5001226;28;88028;-37
2022/10/29 00:04:12;;;;;;;;;;;13.30;60.10;;;;;;5001761;28;88384;-37
2022/10/29 00:06:38;;;;;;;;;;;13.30;60.00;;;;;;5001703;28;88120;-37
2022/10/29 00:09:04;;;;;;;;;;;13.30;60.00;;;;;;5001834;28;87103;-37
2022/10/29 00:11:29;;;;;;;;;;;13.30;60.00;;;;;;5001540;28;88136;-37
2022/10/29 00:13:56;;;;;;;;;;;13.30;60.00;;;;;;5001682;28;87309;-37
2022/10/29 00:16:23;;;;;;;;;;;13.30;60.00;;;;;;5007829;28;87493;-37
2022/10/29 00:18:48;;;;;;;;;;;13.20;60.00;;;;;;5005256;28;86453;-38
2022/10/29 00:21:15;;;;;;;;;;;13.20;60.10;;;;;;5004870;28;87098;-37
2022/10/29 00:23:41;;;;;;;;;;;13.20;60.20;;;;;;5005147;28;86909;-37
2022/10/29 00:26:06;;;;;;;;;;;13.20;60.10;;;;;;5004153;28;88901;-37
2022/10/29 00:28:32;;;;;;;;;;;13.20;60.10;;;;;;5004973;28;87014;-37
2022/10/29 00:31:05;;;;;;;;;;;13.20;60.10;;;;;;5005021;28;87129;-37
2022/10/29 00:33:31;;;;;;;;;;;13.10;60.10;;;;;;5004541;28;87942;-37
2022/10/29 00:36:01;;;;;;;;;;;13.20;60.10;;;;;;5004756;28;87198;-37
2022/10/29 00:38:27;;;;;;;;;;;13.10;60.10;;;;;;5007469;28;86957;-37
2022/10/29 00:40:52;;;;;;;;;;;13.10;60.10;;;;;;5004483;28;86889;-37
2022/10/29 00:43:19;;;;;;;;;;;13.10;60.10;;;;;;5005105;28;87440;-37
2022/10/29 00:45:48;;;;;;;;;;;13.10;60.10;;;;;;5004361;28;88078;-37
2022/10/29 00:48:14;;;;;;;;;;;13.00;60.10;;;;;;5004623;28;87202;-37
2022/10/29 00:50:39;;;;;;;;;;;13.00;60.20;;;;;;5004051;28;88015;-37
2022/10/29 00:53:05;;;;;;;;;;;13.00;60.70;;;;;;5004258;28;88149;-37
2022/10/29 00:55:30;;;;;;;;;;;13.00;60.30;;;;;;5004639;28;87068;-37
2022/10/29 00:57:56;;;;;;;;;;;13.00;60.20;;;;;;5006854;28;87365;-37
2022/10/29 01:00:22;;;;;;;;;;;13.00;60.10;;;;;;5004538;28;87005;-37
2022/10/29 01:02:48;;;;;;;;;;;13.00;60.20;;;;;;5004382;28;87212;-37
2022/10/29 01:05:16;;;;;;;;;;;12.90;60.00;;;;;;5004268;28;87975;-37
2022/10/29 01:07:42;;;;;;;;;;;12.90;60.00;;;;;;5004927;28;86408;-37
2022/10/29 01:10:08;;;;;;;;;;;12.90;60.20;;;;;;5004326;28;87006;-37
2022/10/29 01:12:45;;;;;;;;;;;12.90;60.10;;;;;;5003269;28;91770;-37
2022/10/29 01:15:22;;;;;;;;;;;12.90;60.10;;;;;;5003951;28;87918;-37
2022/10/29 01:17:50;;;;;;;;;;;12.90;60.10;;;;;;5002642;28;91478;-37
2022/10/29 01:20:16;;;;;;;;;;;12.90;60.10;;;;;;5006906;28;87280;-37
2022/10/29 01:22:45;;;;;;;;;;;12.90;60.00;;;;;;5004398;28;87408;-37
2022/10/29 01:25:24;;;;;;;;;;;12.90;60.10;;;;;;5003504;28;88133;-37
2022/10/29 01:28:25;;;;;;;;;;;12.80;60.00;;;;;;5003611;28;87394;-37
2022/10/29 01:30:59;;;;;;;;;;;12.80;60.00;;;;;;5001612;28;87451;-37
2022/10/29 01:33:40;;;;;;;;;;;12.80;60.00;;;;;;5003717;28;87450;-37
2022/10/29 01:36:09;;;;;;;;;;;12.80;60.00;;;;;;5003723;28;87406;-37
2022/10/29 01:38:51;;;;;;;;;;;12.80;60.10;;;;;;5003773;28;87420;-37
2022/10/29 01:41:20;;;;;;;;;;;12.80;59.90;;;;;;5002526;28;88851;-37
2022/10/29 01:43:52;;;;;;;;;;;12.70;59.80;;;;;;5006925;28;88279;-37
2022/10/29 01:46:20;;;;;;;;;;;12.70;60.00;;;;;;5003350;28;88225;-37
2022/10/29 01:48:47;;;;;;;;;;;12.70;60.00;;;;;;5003686;28;86889;-37
2022/10/29 01:51:17;;;;;;;;;;;12.70;60.00;;;;;;5003619;28;87399;-37
2022/10/29 01:53:43;;;;;;;;;;;12.70;60.20;;;;;;5003660;28;88066;-37
2022/10/29 01:56:08;;;;;;;;;;;12.70;59.90;;;;;;5003397;28;87150;-37
2022/10/29 01:58:35;;;;;;;;;;;12.70;59.90;;;;;;5003976;28;87587;-37
2022/10/29 02:01:19;;;;;;;;;;;12.70;59.80;;;;;;5003014;28;87293;-37
2022/10/29 02:04:12;;;;;;;;;;;12.60;59.80;;;;;;5003670;28;87195;-37
2022/10/29 02:06:37;;;;;;;;;;;12.60;59.90;;;;;;5005621;28;87998;-37
2022/10/29 02:09:05;;;;;;;;;;;12.60;60.00;;;;;;5003241;28;86984;-37
2022/10/29 02:11:34;;;;;;;;;;;12.60;60.00;;;;;;5003097;28;87439;-37
2022/10/29 02:13:59;;;;;;;;;;;12.60;60.00;;;;;;5003123;28;88150;-37
2022/10/29 02:16:26;;;;;;;;;;;12.60;60.40;;;;;;5003374;28;87523;-37
2022/10/29 02:18:52;;;;;;;;;;;12.60;59.90;;;;;;5003303;28;87485;-37
2022/10/29 02:21:18;;;;;;;;;;;12.60;60.10;;;;;;5002955;28;87865;-37
2022/10/29 02:23:43;;;;;;;;;;;12.60;59.80;;;;;;5003705;28;86398;-37
2022/10/29 02:26:09;;;;;;;;;;;12.60;59.80;;;;;;5003244;28;86980;-37
2022/10/29 02:28:35;;;;;;;;;;;12.60;59.80;;;;;;5005771;28;87813;-37
2022/10/29 02:31:00;;;;;;;;;;;12.50;59.70;;;;;;5002650;28;88036;-37
2022/10/29 02:33:26;;;;;;;;;;;12.60;59.90;;;;;;5002836;28;87914;-37
2022/10/29 02:35:51;;;;;;;;;;;12.50;59.70;;;;;;5002842;28;87167;-37
2022/10/29 02:38:17;;;;;;;;;;;12.50;59.90;;;;;;5002730;28;87168;-37
2022/10/29 02:40:42;;;;;;;;;;;12.50;59.90;;;;;;5002644;28;87746;-37
2022/10/29 02:43:08;;;;;;;;;;;12.50;59.80;;;;;;5002652;28;87246;-37
2022/10/29 02:45:34;;;;;;;;;;;12.50;59.70;;;;;;5002958;28;87332;-37
2022/10/29 02:47:59;;;;;;;;;;;12.40;59.90;;;;;;5003052;28;87279;-37
2022/10/29 02:50:24;;;;;;;;;;;12.40;59.70;;;;;;5005806;28;87135;-37
2022/10/29 02:52:50;;;;;;;;;;;12.40;59.70;;;;;;5002503;28;88244;-37
2022/10/29 02:55:15;;;;;;;;;;;12.40;59.80;;;;;;5002152;28;88010;-37
2022/10/29 02:57:44;;;;;;;;;;;12.40;59.80;;;;;;5002609;28;87831;-37
2022/10/29 03:00:10;;;;;;;;;;;12.40;59.50;;;;;;5002285;28;88351;-37
2022/10/29 03:02:36;;;;;;;;;;;12.40;59.80;;;;;;5002646;28;87242;-37
2022/10/29 03:05:01;;;;;;;;;;;12.40;59.70;;;;;;5002771;28;87317;-37
2022/10/29 03:07:27;;;;;;;;;;;12.30;59.80;;;;;;5001935;28;87890;-37
2022/10/29 03:09:52;;;;;;;;;;;12.30;59.70;;;;;;5005417;28;87111;-37
2022/10/29 03:12:18;;;;;;;;;;;12.30;59.90;;;;;;5002340;28;87700;-37
2022/10/29 03:14:43;;;;;;;;;;;12.30;59.80;;;;;;5002402;28;87013;-37
2022/10/29 03:17:09;;;;;;;;;;;12.30;59.70;;;;;;5002568;28;87101;-37
2022/10/29 03:19:34;;;;;;;;;;;12.30;59.60;;;;;;5001353;28;88986;-37
2022/10/29 03:22:00;;;;;;;;;;;12.20;59.60;;;;;;5002233;28;86972;-37
2022/10/29 03:24:25;;;;;;;;;;;12.30;59.80;;;;;;5002125;28;86981;-37
2022/10/29 03:26:50;;;;;;;;;;;12.20;59.70;;;;;;5002046;28;88523;-37
2022/10/29 03:29:16;;;;;;;;;;;12.20;59.70;;;;;;5002251;28;87523;-37
2022/10/29 03:31:41;;;;;;;;;;;12.20;59.70;;;;;;5004813;28;87015;-37
2022/10/29 03:34:07;;;;;;;;;;;12.20;59.60;;;;;;5002262;28;87122;-37
2022/10/29 03:36:32;;;;;;;;;;;12.20;59.60;;;;;;5002593;28;87434;-37
2022/10/29 03:38:58;;;;;;;;;;;12.20;59.60;;;;;;5001925;28;87448;-37
2022/10/29 03:41:23;;;;;;;;;;;12.20;59.70;;;;;;5000720;28;87091;-37
2022/10/29 03:43:49;;;;;;;;;;;12.10;59.40;;;;;;5001631;28;87964;-37
2022/10/29 03:46:14;;;;;;;;;;;12.10;59.60;;;;;;5001801;28;87213;-37
2022/10/29 03:48:40;;;;;;;;;;;12.10;59.60;;;;;;5002140;28;87094;-37
2022/10/29 03:51:05;;;;;;;;;;;12.10;59.50;;;;;;5005122;28;87387;-37
2022/10/29 03:53:31;;;;;;;;;;;12.10;59.50;;;;;;5007579;28;89335;-37
2022/10/29 03:55:57;;;;;;;;;;;12.10;59.60;;;;;;5005423;28;87249;-37
2022/10/29 03:58:23;;;;;;;;;;;12.10;59.50;;;;;;5005210;28;87184;-37
2022/10/29 04:00:53;;;;;;;;;;;12.10;59.50;;;;;;5006071;28;86387;-37
2022/10/29 04:03:18;;;;;;;;;;;12.10;59.50;;;;;;5005208;28;87023;-37
2022/10/29 04:05:44;;;;;;;;;;;12.00;59.60;;;;;;5005003;28;87214;-37
2022/10/29 04:08:09;;;;;;;;;;;12.00;59.60;;;;;;5004472;28;88036;-37
2022/10/29 04:10:35;;;;;;;;;;;12.00;59.50;;;;;;5005523;28;88492;-37
2022/10/29 04:13:00;;;;;;;;;;;12.00;59.60;;;;;;5004608;28;88119;-37
2022/10/29 04:15:26;;;;;;;;;;;11.90;59.40;;;;;;5008260;28;87122;-37
2022/10/29 04:17:51;;;;;;;;;;;12.00;59.60;;;;;;5004983;28;88081;-37
2022/10/29 04:20:17;;;;;;;;;;;11.90;59.50;;;;;;5005123;28;87059;-37
2022/10/29 04:22:42;;;;;;;;;;;11.90;59.40;;;;;;5004703;28;87360;-37
2022/10/29 04:25:08;;;;;;;;;;;11.90;59.50;;;;;;5005144;28;87470;-37
2022/10/29 04:27:34;;;;;;;;;;;11.90;59.40;;;;;;5005061;28;87092;-37
2022/10/29 04:29:59;;;;;;;;;;;11.90;59.60;;;;;;5005013;28;87300;-37
2022/10/29 04:32:24;;;;;;;;;;;11.90;59.50;;;;;;5004001;28;87916;-37
2022/10/29 04:34:50;;;;;;;;;;;11.90;59.40;;;;;;5005097;28;87114;-37
2022/10/29 04:37:15;;;;;;;;;;;11.80;59.40;;;;;;5007351;28;87135;-37
2022/10/29 04:39:41;;;;;;;;;;;11.80;59.50;;;;;;5004733;28;87075;-37
2022/10/29 04:42:06;;;;;;;;;;;11.80;59.50;;;;;;5004666;28;87287;-37
2022/10/29 04:44:32;;;;;;;;;;;11.80;59.50;;;;;;5004380;28;88447;-37
2022/10/29 04:46:57;;;;;;;;;;;11.80;59.50;;;;;;5004974;28;87436;-37
2022/10/29 04:49:23;;;;;;;;;;;11.70;59.40;;;;;;5005235;28;87722;-37
2022/10/29 04:51:48;;;;;;;;;;;11.70;59.60;;;;;;5004211;28;88024;-37
2022/10/29 04:54:14;;;;;;;;;;;11.70;59.50;;;;;;5004647;28;87160;-37
2022/10/29 04:56:40;;;;;;;;;;;11.70;59.40;;;;;;5004079;28;88004;-37
2022/10/29 04:59:05;;;;;;;;;;;11.70;59.30;;;;;;5007170;28;88067;-37
2022/10/29 05:01:31;;;;;;;;;;;11.70;59.30;;;;;;5004452;28;87431;-37
2022/10/29 05:03:56;;;;;;;;;;;11.70;59.40;;;;;;5004285;28;87319;-37
2022/10/29 05:06:22;;;;;;;;;;;11.70;59.50;;;;;;5004333;28;87137;-37
2022/10/29 05:08:47;;;;;;;;;;;11.60;59.50;;;;;;5004261;28;87446;-37
2022/10/29 05:11:13;;;;;;;;;;;11.60;59.50;;;;;;5003721;28;87996;-37
2022/10/29 05:13:39;;;;;;;;;;;11.60;59.40;;;;;;5004606;28;86208;-37
2022/10/29 05:16:04;;;;;;;;;;;11.60;59.40;;;;;;5004443;28;87081;-37
2022/10/29 05:18:30;;;;;;;;;;;11.60;59.30;;;;;;5006864;28;88256;-37
2022/10/29 05:20:56;;;;;;;;;;;11.70;59.30;;;;;;5003873;28;87781;-37
2022/10/29 05:23:22;;;;;;;;;;;11.60;59.30;;;;;;5003316;28;87956;-37
2022/10/29 05:25:50;;;;;;;;;;;11.60;59.20;;;;;;5004194;28;87081;-37
2022/10/29 05:28:19;;;;;;;;;;;11.60;59.20;;;;;;5004112;28;87381;-37
2022/10/29 05:30:45;;;;;;;;;;;11.50;59.20;;;;;;5003597;28;87958;-37
2022/10/29 05:33:13;;;;;;;;;;;11.60;59.20;;;;;;5004046;28;87092;-37
2022/10/29 05:35:38;;;;;;;;;;;11.50;59.10;;;;;;5003992;28;86893;-37
2022/10/29 05:38:04;;;;;;;;;;;11.50;59.30;;;;;;5003763;28;87289;-37
2022/10/29 05:40:30;;;;;;;;;;;11.50;59.40;;;;;;5006781;28;87651;-37
2022/10/29 05:42:55;;;;;;;;;;;11.50;59.20;;;;;;5003465;28;87947;-37
2022/10/29 05:45:21;;;;;;;;;;;11.50;59.30;;;;;;5003129;28;87848;-37
2022/10/29 05:47:46;;;;;;;;;;;11.40;59.20;;;;;;5003765;28;88256;-37
2022/10/29 05:50:12;;;;;;;;;;;11.50;59.30;;;;;;5003293;28;87860;-37
2022/10/29 05:52:38;;;;;;;;;;;11.40;59.30;;;;;;5003564;28;87430;-37
2022/10/29 05:55:04;;;;;;;;;;;11.40;59.30;;;;;;5003717;28;87474;-37
2022/10/29 05:57:29;;;;;;;;;;;11.40;59.20;;;;;;5003282;28;88460;-37
2022/10/29 05:59:54;;;;;;;;;;;11.40;59.20;;;;;;5003611;28;87130;-37
2022/10/29 06:02:20;;;;;;;;;;;11.40;59.20;;;;;;5006528;28;87687;-37
2022/10/29 06:04:46;;;;;;;;;;;11.40;59.20;;;;;;5003466;28;87098;-37
2022/10/29 06:07:11;;;;;;;;;;;11.40;59.20;;;;;;5003447;28;87410;-37
2022/10/29 06:09:36;;;;;;;;;;;11.40;59.10;;;;;;5002230;28;88241;-37
2022/10/29 06:12:02;;;;;;;;;;;11.40;59.20;;;;;;5002268;28;87122;-37
2022/10/29 06:14:27;;;;;;;;;;;11.40;59.10;;;;;;5003608;28;87631;-37
2022/10/29 06:16:53;;;;;;;;;;;11.40;59.20;;;;;;5002970;28;88256;-37
2022/10/29 06:19:18;;;;;;;;;;;11.40;59.10;;;;;;5003224;28;87040;-37
2022/10/29 06:21:44;;;;;;;;;;;11.30;59.20;;;;;;5002966;28;87609;-37
2022/10/29 06:24:09;;;;;;;;;;;11.40;59.10;;;;;;5005587;28;88239;-37
2022/10/29 06:26:36;;;;;;;;;;;11.30;59.10;;;;;;5003582;28;86877;-37
2022/10/29 06:29:02;;;;;;;;;;;11.30;59.10;;;;;;5002816;28;88344;-37
2022/10/29 06:31:27;;;;;;;;;;;11.30;59.10;;;;;;5003120;28;87124;-37
2022/10/29 06:33:53;;;;;;;;;;;11.30;59.20;;;;;;5002397;28;88379;-37
2022/10/29 06:36:19;;;;;;;;;;;11.30;59.20;;;;;;5002437;28;88033;-37
2022/10/29 06:38:44;;;;;;;;;;;11.30;59.20;;;;;;5002613;28;87133;-37
2022/10/29 06:41:10;;;;;;;;;;;11.30;59.20;;;;;;5002838;28;87607;-37
2022/10/29 06:43:35;;;;;;;;;;;11.30;59.30;;;;;;5002537;28;87714;-37
2022/10/29 06:46:01;;;;;;;;;;;11.30;59.20;;;;;;5005788;28;87153;-37
2022/10/29 06:48:26;;;;;;;;;;;11.30;59.20;;;;;;5002553;28;88184;-37
2022/10/29 06:50:52;;;;;;;;;;;11.30;59.10;;;;;;5003250;28;86514;-37
2022/10/29 06:53:18;;;;;;;;;;;11.30;59.20;;;;;;5002550;28;87059;-37
2022/10/29 06:55:43;;;;;;;;;;;11.30;59.30;;;;;;5002339;28;88237;-37
2022/10/29 06:58:10;;;;;;;;;;;11.30;59.30;;;;;;5002152;28;88137;-37
2022/10/29 07:00:36;;;;;;;;;;;11.20;59.20;;;;;;5002584;28;88114;-37
2022/10/29 07:03:02;;;;;;;;;;;11.30;59.30;;;;;;5002368;28;88467;-37
2022/10/29 07:05:27;;;;;;;;;;;11.30;59.20;;;;;;5002647;28;87129;-37
2022/10/29 07:08:00;;;;;;;;;;;11.30;59.30;;;;;;5004947;28;87482;-37
2022/10/29 07:10:26;;;;;;;;;;;11.30;59.30;;;;;;5002582;28;87106;-37
2022/10/29 07:12:51;;;;;;;;;;;11.20;59.30;;;;;;5002081;28;87345;-37
2022/10/29 07:15:17;;;;;;;;;;;11.20;59.40;;;;;;5002651;28;87277;-37
2022/10/29 07:17:52;;;;;;;;;;;11.20;59.40;;;;;;5002454;28;87098;-37
2022/10/29 07:20:18;;;;;;;;;;;11.20;59.40;;;;;;5002736;28;87425;-37
2022/10/29 07:22:46;;;;;;;;;;;11.20;59.50;;;;;;5001216;28;88974;-37
2022/10/29 07:25:11;;;;;;;;;;;11.20;59.50;;;;;;5004094;28;87054;-37
2022/10/29 07:27:37;;;;;;;;;;;11.20;59.50;;;;;;5008619;28;87084;-37
2022/10/29 07:30:02;;;;;;;;;;;11.20;59.50;;;;;;5005947;28;87093;-37
2022/10/29 07:32:28;;;;;;;;;;;11.20;59.50;;;;;;5005845;28;87477;-37
2022/10/29 07:34:53;;;;;;;;;;;11.20;59.60;;;;;;5005683;28;87509;-37
2022/10/29 07:37:19;;;;;;;;;;;11.20;59.80;;;;;;5005371;28;87158;-37
2022/10/29 07:39:44;;;;;;;;;;;11.10;59.70;;;;;;5006275;28;87352;-37
2022/10/29 07:42:10;;;;;;;;;;;11.20;59.90;;;;;;5005355;28;88166;-37
2022/10/29 07:44:35;;;;;;;;;;;11.20;59.80;;;;;;5005833;28;87120;-37
2022/10/29 07:47:01;;;;;;;;;;;11.10;59.90;;;;;;5005086;28;87965;-37
2022/10/29 07:49:27;;;;;;;;;;;11.20;59.90;;;;;;5008145;28;87848;-37
2022/10/29 07:51:53;;;;;;;;;;;11.20;59.80;;;;;;5005561;28;87461;-37
2022/10/29 07:54:18;;;;;;;;;;;11.10;59.80;;;;;;5005192;28;88286;-37
2022/10/29 07:56:44;;;;;;;;;;;11.20;59.90;;;;;;5005736;28;87124;-37
2022/10/29 07:59:13;;;;;;;;;;;11.20;59.90;;;;;;5005761;28;88230;-37
2022/10/29 08:01:38;;;;;;;;;;;11.20;59.80;;;;;;5004846;28;87855;-37
2022/10/29 08:04:04;;;;;;;;;;;11.20;60.00;;;;;;5005849;28;86282;-37
2022/10/29 08:06:29;;;;;;;;;;;11.20;59.90;;;;;;5005383;28;87118;-37
2022/10/29 08:08:56;;;;;;;;;;;11.20;59.90;;;;;;5005273;28;87985;-37
2022/10/29 08:11:21;;;;;;;;;;;11.20;60.00;;;;;;5007158;28;88055;-37
2022/10/29 08:13:47;;;;;;;;;;;11.20;60.00;;;;;;5004963;28;88104;-37
2022/10/29 08:16:13;;;;;;;;;;;11.20;60.10;;;;;;5005350;28;87107;-37
2022/10/29 08:18:38;;;;;;;;;;;11.20;60.10;;;;;;5005171;28;87408;-37
2022/10/29 08:21:04;;;;;;;;;;;11.20;60.30;;;;;;5004805;28;88080;-37
2022/10/29 08:23:29;;;;;;;;;;;11.10;60.30;;;;;;5005029;28;87046;-37
2022/10/29 08:25:56;;;;;;;;;;;11.20;60.30;;;;;;5005162;28;87762;-37
2022/10/29 08:28:22;;;;;;;;;;;11.10;60.30;;;;;;5005080;28;87468;-37
2022/10/29 08:30:48;;;;;;;;;;;11.10;60.30;;;;;;5004944;28;87115;-37
2022/10/29 08:33:13;;;;;;;;;;;11.10;60.40;;;;;;5007390;28;87480;-37
2022/10/29 08:35:39;;;;;;;;;;;11.10;60.50;;;;;;5003804;28;88047;-37
2022/10/29 08:38:04;;;;;;;;;;;11.10;60.60;;;;;;5004570;28;87985;-37
2022/10/29 08:40:30;;;;;;;;;;;11.10;60.60;;;;;;5004511;28;88086;-37
2022/10/29 08:42:55;;;;;;;;;;;11.10;60.60;;;;;;5004779;28;86923;-37
2022/10/29 08:45:27;;;;;;;;;;;11.10;60.50;;;;;;5004976;28;87497;-37
2022/10/29 08:48:11;;;;;;;;;;;11.10;60.60;;;;;;5004113;28;87770;-37
2022/10/29 08:50:41;;;;;;;;;;;11.10;60.60;;;;;;5004491;28;87105;-37
2022/10/29 08:53:27;;;;;;;;;;;11.10;60.60;;;;;;5004960;28;87248;-37
2022/10/29 08:55:52;;;;;;;;;;;11.10;60.70;;;;;;5006539;28;87549;-37
2022/10/29 08:58:22;;;;;;;;;;;11.10;60.70;;;;;;5004511;28;87325;-37
2022/10/29 09:00:48;;;;;;;;;;;11.10;60.80;;;;;;5003196;28;89140;-37
2022/10/29 09:03:13;;;;;;;;;;;11.10;60.80;;;;;;5004311;28;87180;-37
2022/10/29 09:05:57;;;;;;;;;;;11.10;60.80;;;;;;5004354;28;87796;-37
2022/10/29 09:08:29;;;;;;;;;;;11.20;60.80;;;;;;5003974;28;88178;-37
2022/10/29 09:10:56;;;;;;;;;;;11.20;60.80;;;;;;5004365;28;87144;-37
2022/10/29 09:13:39;;;;;;;;;;;11.10;61.00;;;;;;5004094;28;87007;-37
2022/10/29 09:16:04;;;;;;;;;;;11.20;61.00;;;;;;5003997;28;87315;-37
2022/10/29 09:18:37;;;;;;;;;;;11.20;60.90;;;;;;5007442;28;86202;-37
2022/10/29 09:21:14;;;;;;;;;;;11.20;60.90;;;;;;5003948;28;88102;-37
2022/10/29 09:23:52;;;;;;;;;;;11.20;61.20;;;;;;5004277;28;86892;-37
2022/10/29 09:26:20;;;;;;;;;;;11.20;61.30;;;;;;5003506;28;88056;-37
2022/10/29 09:28:48;;;;;;;;;;;11.20;61.20;;;;;;5003746;28;87113;-37
2022/10/29 09:31:23;;;;;;;;;;;11.20;61.10;;;;;;5004108;28;87112;-37
2022/10/29 09:33:50;;;;;;;;;;;11.20;61.30;;;;;;5003830;28;87377;-37
2022/10/29 09:36:22;;;;;;;;;;;11.10;61.40;;;;;;5003275;28;87821;-37
2022/10/29 09:38:52;;;;;;;;;;;11.10;61.40;;;;;;5006601;28;87157;-37
2022/10/29 09:41:18;;;;;;;;;;;11.10;61.70;;;;;;5003306;28;88971;-37
2022/10/29 09:43:44;;;;;;;;;;;11.20;61.40;;;;;;5004392;28;86355;-37
2022/10/29 09:46:12;;;;;;;;;;;11.20;61.40;;;;;;5003781;28;87162;-37
2022/10/29 09:48:46;;;;;;;;;;;11.20;61.50;;;;;;5002382;28;87298;-37
2022/10/29 09:51:15;;;;;;;;;;;11.30;61.40;;;;;;5003256;28;88615;-37
2022/10/29 09:53:40;;;;;;;;;;;11.30;61.30;;;;;;5003833;28;87571;-37
2022/10/29 09:56:07;;;;;;;;;;;11.40;61.60;;;;;;5003502;28;87951;-37
2022/10/29 09:58:35;;;;;;;;;;;11.40;61.40;;;;;;5003539;28;87066;-37
2022/10/29 10:01:00;;;;;;;;;;;11.40;61.70;;;;;;5006067;28;87708;-37
2022/10/29 10:03:32;;;;;;;;;;;11.40;61.70;;;;;;5003350;28;87166;-37
2022/10/29 10:06:02;;;;;;;;;;;11.40;61.80;;;;;;5003394;28;86907;-37
2022/10/29 10:08:28;;;;;;;;;;;11.40;61.70;;;;;;5003621;28;87111;-37
2022/10/29 10:10:54;;;;;;;;;;;11.40;62.00;;;;;;5003407;28;87133;-37
2022/10/29 10:13:22;;;;;;;;;;;11.40;61.80;;;;;;5003163;28;87576;-37
2022/10/29 10:15:49;;;;;;;;;;;11.40;62.00;;;;;;5002461;28;89035;-37
2022/10/29 10:18:20;;;;;;;;;;;11.50;62.30;;;;;;5002920;28;86947;-37
2022/10/29 10:20:57;;;;;;;;;;;11.50;62.20;;;;;;5003525;28;86874;-37
2022/10/29 10:23:24;;;;;;;;;;;11.50;62.20;;;;;;5005738;28;88536;-37
2022/10/29 10:25:51;;;;;;;;;;;11.50;62.20;;;;;;5003161;28;87032;-37
2022/10/29 10:28:18;;;;;;;;;;;11.50;62.10;;;;;;5002984;28;87845;-37
2022/10/29 10:30:44;;;;;;;;;;;11.50;62.10;;;;;;5003086;28;86996;-37
2022/10/29 10:33:30;;;;;;;;;;;11.60;62.10;;;;;;5003680;28;86255;-37
2022/10/29 10:36:00;;;;;;;;;;;11.60;62.80;;;;;;5002418;28;88167;-37
2022/10/29 10:38:25;;;;;;;;;;;11.60;62.20;;;;;;5002680;28;87081;-37
2022/10/29 10:40:55;;;;;;;;;;;11.60;62.30;;;;;;5002491;28;87915;-37
2022/10/29 10:43:22;;;;;;;;;;;11.60;62.40;;;;;;5002463;28;87974;-37
2022/10/29 10:45:52;;;;;;;;;;;11.60;62.60;;;;;;5005719;28;87100;-37
2022/10/29 10:48:17;;;;;;;;;;;11.60;62.40;;;;;;5002358;28;87256;-37
2022/10/29 10:50:43;;;;;;;;;;;11.70;63.10;;;;;;5002776;28;87029;-37
2022/10/29 10:53:15;;;;;;;;;;;11.60;62.30;;;;;;5002878;28;87636;-37
2022/10/29 10:55:45;;;;;;;;;;;11.70;62.40;;;;;;5002322;28;88163;-37
2022/10/29 10:58:19;;;;;;;;;;;11.70;62.40;;;;;;5002877;28;86355;-37
2022/10/29 11:00:54;;;;;;;;;;;11.70;62.70;;;;;;5002807;28;86982;-37
2022/10/29 11:03:22;;;;;;;;;;;11.70;62.70;;;;;;5002004;28;88023;-37
2022/10/29 11:05:50;;;;;;;;;;;11.80;62.80;;;;;;5001896;28;87972;-37
2022/10/29 11:08:20;;;;;;;;;;;11.80;62.90;;;;;;5005170;28;88198;-37
2022/10/29 11:10:54;;;;;;;;;;;11.80;62.90;;;;;;5002459;28;87223;-37
2022/10/29 11:13:21;;;;;;;;;;;11.80;62.60;;;;;;5002397;28;87151;-37
2022/10/29 11:15:53;;;;;;;;;;;11.80;62.90;;;;;;5002076;28;87984;-37
2022/10/29 11:18:22;;;;;;;;;;;11.90;62.80;;;;;;5002599;28;87099;-37
2022/10/29 11:21:00;;;;;;;;;;;11.90;62.70;;;;;;5002259;28;86943;-37
2022/10/29 11:23:30;;;;;;;;;;;11.90;62.80;;;;;;5002682;28;87409;-37
2022/10/29 11:26:01;;;;;;;;;;;11.90;62.80;;;;;;5002402;28;86878;-37
2022/10/29 11:28:37;;;;;;;;;;;11.90;62.60;;;;;;5004922;28;87386;-37
2022/10/29 11:31:12;;;;;;;;;;;11.90;62.80;;;;;;5001407;28;88077;-37
2022/10/29 11:33:40;;;;;;;;;;;12.00;62.50;;;;;;5002041;28;88572;-37
2022/10/29 11:36:15;;;;;;;;;;;12.00;62.80;;;;;;5001857;28;87982;-37
2022/10/29 11:38:47;;;;;;;;;;;12.00;62.50;;;;;;5002034;28;87355;-37
2022/10/29 11:41:19;;;;;;;;;;;12.00;62.70;;;;;;5002201;28;87340;-37
2022/10/29 11:43:45;;;;;;;;;;;12.00;62.60;;;;;;5001691;28;87295;-37
2022/10/29 11:46:30;;;;;;;;;;;12.00;63.30;;;;;;5001792;28;87112;-36
2022/10/29 11:48:58;;;;;;;;;;;12.10;62.70;;;;;;5002574;28;87294;-36
2022/10/29 11:51:35;;;;;;;;;;;12.10;62.60;;;;;;5004852;28;88025;-36
2022/10/29 11:54:19;;;;;;;;;;;12.10;62.60;;;;;;5002250;28;86882;-37
2022/10/29 11:56:57;;;;;;;;;;;12.10;62.30;;;;;;5001095;28;88893;-37
2022/10/29 11:59:28;;;;;;;;;;;12.20;62.60;;;;;;5002155;28;86905;-37
2022/10/29 12:02:12;;;;;;;;;;;12.20;62.40;;;;;;5001961;28;87489;-37
2022/10/29 12:05:00;;;;;;;;;;;12.20;62.40;;;;;;5001637;28;87995;-36
2022/10/29 12:07:29;;;;;;;;;;;12.20;62.40;;;;;;5001019;28;86976;-36
2022/10/29 12:10:09;;;;;;;;;;;12.20;62.40;;;;;;5002084;28;88051;-37
2022/10/29 12:12:38;;;;;;;;;;;12.20;62.10;;;;;;5004846;28;88115;-37
2022/10/29 12:15:09;;;;;;;;;;;12.20;62.30;;;;;;5008597;28;86401;-37
2022/10/29 12:17:47;;;;;;;;;;;12.30;62.20;;;;;;5004806;28;88016;-37
2022/10/29 12:20:30;;;;;;;;;;;12.30;62.20;;;;;;5005180;28;87008;-37
2022/10/29 12:23:10;;;;;;;;;;;12.30;62.30;;;;;;5004685;28;88897;-37
2022/10/29 12:26:07;;;;;;;;;;;12.30;62.00;;;;;;5004933;28;88165;-39
2022/10/29 12:28:39;;;;;;;;;;;12.40;61.70;;;;;;5003438;28;87103;-38
2022/10/29 12:31:15;;;;;;;;;;;12.40;62.10;;;;;;5005083;28;86944;-39
2022/10/29 12:33:59;;;;;;;;;;;12.40;61.70;;;;;;5004744;28;87984;-39
2022/10/29 12:36:37;;;;;;;;;;;12.40;61.50;;;;;;5004965;28;87084;-38
2022/10/29 12:39:04;;;;;;;;;;;12.40;61.30;;;;;;5007348;28;87324;-38
2022/10/29 12:41:40;;;;;;;;;;;12.40;61.40;;;;;;5005123;28;86170;-37
2022/10/29 12:44:05;;;;;;;;;;;12.50;61.30;;;;;;5004452;28;87035;-39
2022/10/29 12:46:39;;;;;;;;;;;12.50;61.00;;;;;;5004592;28;88081;-39
2022/10/29 12:49:23;;;;;;;;;;;12.50;61.10;;;;;;5004256;28;87975;-39
2022/10/29 12:51:57;;;;;;;;;;;12.50;61.00;;;;;;5004823;28;88202;-37
2022/10/29 12:54:43;;;;;;;;;;;12.50;60.70;;;;;;5004298;28;89455;-39
2022/10/29 12:57:11;;;;;;;;;;;12.50;61.00;;;;;;5004312;28;87091;-39
2022/10/29 12:59:37;;;;;;;;;;;12.60;61.40;;;;;;5004731;28;87387;-38
2022/10/29 13:02:21;;;;;;;;;;;12.60;61.40;;;;;;5007088;28;88045;-37
2022/10/29 13:05:19;;;;;;;;;;;12.60;60.90;;;;;;5004580;28;87409;-37
2022/10/29 13:07:44;;;;;;;;;;;12.60;61.00;;;;;;5002772;28;87378;-38
2022/10/29 13:10:27;;;;;;;;;;;12.60;60.70;;;;;;5004595;28;87100;-36
2022/10/29 13:13:06;;;;;;;;;;;12.60;61.10;;;;;;5004087;28;87248;-37
2022/10/29 13:15:41;;;;;;;;;;;12.70;61.20;;;;;;5003143;28;88211;-37
2022/10/29 13:18:19;;;;;;;;;;;12.70;60.40;;;;;;5004121;28;86965;-37
2022/10/29 13:20:49;;;;;;;;;;;12.70;61.00;;;;;;5004513;28;88195;-39
2022/10/29 13:23:20;;;;;;;;;;;12.70;60.80;;;;;;5003640;28;88195;-39
2022/10/29 13:25:47;;;;;;;;;;;12.70;60.80;;;;;;5007036;28;87209;-39
2022/10/29 13:28:12;;;;;;;;;;;12.70;60.80;;;;;;5003784;28;88377;-36
2022/10/29 13:30:39;;;;;;;;;;;12.70;60.90;;;;;;5003827;28;87401;-38
2022/10/29 13:33:23;;;;;;;;;;;12.80;61.20;;;;;;5004530;28;87481;-39
2022/10/29 13:35:51;;;;;;;;;;;12.80;61.00;;;;;;5003448;28;88207;-38
2022/10/29 13:38:17;;;;;;;;;;;12.80;61.00;;;;;;5003641;28;87127;-38
2022/10/29 13:40:52;;;;;;;;;;;12.80;61.30;;;;;;5003447;28;87908;-39
2022/10/29 13:43:17;;;;;;;;;;;12.90;61.20;;;;;;5003169;28;88240;-39
2022/10/29 13:45:49;;;;;;;;;;;12.90;60.50;;;;;;5006897;28;87084;-39
2022/10/29 13:48:22;;;;;;;;;;;12.90;61.00;;;;;;5003335;28;88096;-39
2022/10/29 13:50:51;;;;;;;;;;;12.90;61.00;;;;;;5003417;28;87020;-39
2022/10/29 13:53:19;;;;;;;;;;;12.90;60.80;;;;;;5003892;28;87416;-39
2022/10/29 13:55:45;;;;;;;;;;;13.00;60.50;;;;;;5002862;28;88106;-38
2022/10/29 13:58:16;;;;;;;;;;;13.00;60.70;;;;;;5003991;28;86749;-39
2022/10/29 14:00:42;;;;;;;;;;;13.00;60.60;;;;;;5003473;28;87084;-37
2022/10/29 14:03:14;;;;;;;;;;;13.00;60.90;;;;;;5003145;28;87232;-39
2022/10/29 14:05:50;;;;;;;;;;;13.00;60.80;;;;;;5002865;28;88177;-38
2022/10/29 14:08:18;;;;;;;;;;;13.10;61.30;;;;;;5005778;28;88566;-39
2022/10/29 14:10:45;;;;;;;;;;;13.10;60.50;;;;;;5003290;28;87548;-39
2022/10/29 14:13:23;;;;;;;;;;;13.10;60.70;;;;;;5002876;28;87361;-39
2022/10/29 14:16:01;;;;;;;;;;;13.10;60.50;;;;;;5003072;28;87084;-37
2022/10/29 14:18:29;;;;;;;;;;;13.10;60.90;;;;;;5002936;28;87099;-39
2022/10/29 14:21:02;;;;;;;;;;;13.10;60.90;;;;;;5003148;28;87428;-39
2022/10/29 14:23:29;;;;;;;;;;;13.10;60.60;;;;;;5003169;28;89239;-38
2022/10/29 14:25:55;;;;;;;;;;;13.20;60.70;;;;;;5003327;28;86941;-38